Time,TemperatureF,DewpointF,PressureIn,WindDirection,WindDirectionDegrees,WindSpeedMPH,WindSpeedGustMPH,Humidity,HourlyPrecipIn,Conditions,Clouds,dailyrainin,SoftwareType,DateUTC
2013-01-08 00:05:00,30.7,24.1,30.39,ENE,60,0.0,0.0,76,0.00,CLR,OVC,0.00,WeatherDisplay:10.37,2013-01-08 05:05:00,
2013-01-08 00:10:00,30.6,23.9,30.39,ENE,60,0.0,0.0,76,0.00,CLR,OVC,0.00,WeatherDisplay:10.37,2013-01-08 05:10:00,
2013-01-08 00:15:00,30.6,23.9,30.39,ENE,60,0.0,0.0,76,0.00,CLR,OVC,0.00,WeatherDisplay:10.37,2013-01-08 05:15:00,
2013-01-08 00:20:00,30.4,23.7,30.39,ENE,60,0.0,0.0,76,0.00,CLR,OVC,0.00,WeatherDisplay:10.37,2013-01-08 05:20:00,
2013-01-08 00:25:00,30.3,23.7,30.39,ENE,60,0.0,0.0,76,0.00,CLR,OVC,0.00,WeatherDisplay:10.37,2013-01-08 05:25:00,
2013-01-08 00:30:00,30.1,23.8,30.39,ENE,60,0.0,0.0,77,0.00,CLR,OVC,0.00,WeatherDisplay:10.37,2013-01-08 05:30:00,
2013-01-08 00:40:00,30.0,23.7,30.39,ENE,60,0.0,0.0,77,0.00,CLR,OVC,0.00,WeatherDisplay:10.37,2013-01-08 05:40:00,
2013-01-08 00:50:00,29.8,23.5,30.39,ENE,60,0.0,0.0,77,0.00,CLR,OVC,0.00,WeatherDisplay:10.37,2013-01-08 05:50:00,
2013-01-08 01:00:00,29.8,23.8,30.39,ENE,60,0.0,0.0,78,0.00,CLR,OVC,0.00,WeatherDisplay:10.37,2013-01-08 06:00:00,
2013-01-08 01:05:00,29.8,23.8,30.39,ENE,60,0.0,0.0,78,0.00,CLR,OVC,0.00,WeatherDisplay:10.37,2013-01-08 06:05:00,
2013-01-08 01:10:00,29.7,23.6,30.39,ENE,60,0.0,0.0,78,0.00,CLR,OVC,0.00,WeatherDisplay:10.37,2013-01-08 06:10:00,
2013-01-08 01:15:00,29.7,23.6,30.39,ENE,60,0.0,0.0,78,0.00,CLR,OVC,0.00,WeatherDisplay:10.37,2013-01-08 06:15:00,
2013-01-08 01:20:00,29.7,23.6,30.36,ENE,60,0.0,0.0,78,0.00,CLR,OVC,0.00,WeatherDisplay:10.37,2013-01-08 06:20:00,
2013-01-08 01:25:00,29.5,23.8,30.36,ENE,60,0.0,0.0,79,0.00,CLR,OVC,0.00,WeatherDisplay:10.37,2013-01-08 06:25:00,
2013-01-08 01:30:00,29.5,23.8,30.36,ENE,60,0.0,0.0,79,0.00,CLR,OVC,0.00,WeatherDisplay:10.37,2013-01-08 06:30:00,
2013-01-08 01:40:00,29.7,23.9,30.36,ENE,60,0.0,0.0,79,0.00,CLR,OVC,0.00,WeatherDisplay:10.37,2013-01-08 06:40:00,
2013-01-08 01:45:00,29.7,23.9,30.36,ENE,60,0.0,0.0,79,0.00,CLR,OVC,0.00,WeatherDisplay:10.37,2013-01-08 06:45:00,
2013-01-08 01:50:00,29.6,23.9,30.39,ENE,60,0.0,0.0,79,0.00,CLR,OVC,0.00,WeatherDisplay:10.37,2013-01-08 06:50:00,
2013-01-08 02:00:00,29.5,24.1,30.39,ENE,60,0.0,0.0,80,0.00,CLR,OVC,0.00,WeatherDisplay:10.37,2013-01-08 07:00:00,
2013-01-08 02:10:00,29.5,24.1,30.36,ENE,60,0.0,0.0,80,0.00,CLR,OVC,0.00,WeatherDisplay:10.37,2013-01-08 07:10:00,
2013-01-08 02:15:00,29.4,24.0,30.36,ENE,60,0.0,0.0,80,0.00,CLR,OVC,0.00,WeatherDisplay:10.37,2013-01-08 07:15:00,
2013-01-08 02:20:00,29.3,23.9,30.36,ENE,60,0.0,0.0,80,0.00,CLR,OVC,0.00,WeatherDisplay:10.37,2013-01-08 07:20:00,
2013-01-08 02:25:00,29.1,23.7,30.36,ENE,60,0.0,0.0,80,0.00,CLR,OVC,0.00,WeatherDisplay:10.37,2013-01-08 07:25:00,
2013-01-08 02:30:00,29.1,23.7,30.36,ENE,60,0.0,0.0,80,0.00,CLR,OVC,0.00,WeatherDisplay:10.37,2013-01-08 07:30:00,
2013-01-08 02:40:00,29.1,23.7,30.36,ENE,60,0.0,0.0,80,0.00,CLR,OVC,0.00,WeatherDisplay:10.37,2013-01-08 07:40:00,
2013-01-08 02:50:00,29.4,24.0,30.39,ENE,60,0.0,0.0,80,0.00,CLR,OVC,0.00,WeatherDisplay:10.37,2013-01-08 07:50:00,
2013-01-08 02:55:00,29.7,24.2,30.39,ENE,60,0.0,0.0,80,0.00,CLR,OVC,0.00,WeatherDisplay:10.37,2013-01-08 07:55:00,
2013-01-08 03:00:00,30.0,24.9,30.39,ENE,60,0.0,0.0,81,0.00,CLR,OVC,0.00,WeatherDisplay:10.37,2013-01-08 08:00:00,
2013-01-08 03:05:00,30.4,25.2,30.36,ENE,60,0.0,0.0,81,0.00,CLR,OVC,0.00,WeatherDisplay:10.37,2013-01-08 08:05:00,
2013-01-08 03:10:00,30.7,25.9,30.36,ENE,60,0.0,0.0,82,0.00,CLR,OVC,0.00,WeatherDisplay:10.37,2013-01-08 08:10:00,
2013-01-08 03:15:00,31.1,26.2,30.36,ENE,60,0.0,0.0,82,0.00,CLR,OVC,0.00,WeatherDisplay:10.37,2013-01-08 08:15:00,
2013-01-08 03:20:00,31.3,26.4,30.36,ENE,60,0.0,0.0,82,0.00,CLR,OVC,0.00,WeatherDisplay:10.37,2013-01-08 08:20:00,
2013-01-08 03:25:00,31.5,26.6,30.36,ENE,60,0.0,0.0,82,0.00,CLR,OVC,0.00,WeatherDisplay:10.37,2013-01-08 08:25:00,
2013-01-08 03:30:00,31.5,26.9,30.36,ENE,60,0.0,0.0,83,0.00,CLR,OVC,0.00,WeatherDisplay:10.37,2013-01-08 08:30:00,
2013-01-08 03:40:00,31.8,27.2,30.36,ENE,60,0.0,0.0,83,0.00,CLR,OVC,0.00,WeatherDisplay:10.37,2013-01-08 08:40:00,
2013-01-08 03:50:00,32.2,27.9,30.36,ENE,60,0.0,0.0,84,0.00,CLR,OVC,0.00,WeatherDisplay:10.37,2013-01-08 08:50:00,
2013-01-08 03:55:00,32.5,28.2,30.36,ENE,60,0.0,0.0,84,0.00,CLR,OVC,0.00,WeatherDisplay:10.37,2013-01-08 08:55:00,
2013-01-08 04:00:00,32.7,28.4,30.36,ENE,60,0.0,0.0,84,0.00,CLR,OVC,0.00,WeatherDisplay:10.37,2013-01-08 09:00:00,
2013-01-08 04:05:00,32.9,28.6,30.36,ENE,60,0.0,0.0,84,0.00,CLR,OVC,0.00,WeatherDisplay:10.37,2013-01-08 09:05:00,
2013-01-08 04:10:00,33.1,28.8,30.36,ENE,60,0.0,0.0,84,0.00,CLR,OVC,0.00,WeatherDisplay:10.37,2013-01-08 09:10:00,
2013-01-08 04:15:00,33.3,28.9,30.36,ENE,60,0.0,0.0,84,0.00,CLR,OVC,0.00,WeatherDisplay:10.37,2013-01-08 09:15:00,
2013-01-08 04:20:00,33.4,29.1,30.36,ENE,60,0.0,0.0,84,0.00,CLR,OVC,0.00,WeatherDisplay:10.37,2013-01-08 09:20:00,
2013-01-08 04:30:00,33.8,29.5,30.36,ENE,60,0.0,0.0,84,0.00,CLR,OVC,0.00,WeatherDisplay:10.37,2013-01-08 09:30:00,
2013-01-08 04:35:00,34.0,29.7,30.36,ENE,60,0.0,0.0,84,0.00,CLR,OVC,0.00,WeatherDisplay:10.37,2013-01-08 09:35:00,
2013-01-08 04:40:00,34.2,29.8,30.36,ENE,60,0.0,0.0,84,0.00,CLR,OVC,0.00,WeatherDisplay:10.37,2013-01-08 09:40:00,
2013-01-08 04:50:00,34.5,30.2,30.36,ENE,60,0.0,0.0,84,0.00,CLR,OVC,0.00,WeatherDisplay:10.37,2013-01-08 09:50:00,
2013-01-08 05:00:00,34.9,30.8,30.36,ENE,60,0.0,0.0,85,0.00,CLR,OVC,0.00,WeatherDisplay:10.37,2013-01-08 10:00:00,
2013-01-08 05:05:00,35.1,31.0,30.36,ENE,60,0.0,0.0,85,0.00,CLR,OVC,0.00,WeatherDisplay:10.37,2013-01-08 10:05:00,
2013-01-08 05:10:00,35.2,31.2,30.36,ENE,60,0.0,0.0,85,0.00,CLR,OVC,0.00,WeatherDisplay:10.37,2013-01-08 10:10:00,
2013-01-08 05:20:00,35.2,31.2,30.36,ENE,60,0.0,0.0,85,0.00,CLR,OVC,0.00,WeatherDisplay:10.37,2013-01-08 10:20:00,
2013-01-08 05:25:00,35.4,31.4,30.36,ENE,60,0.0,0.0,85,0.00,CLR,OVC,0.00,WeatherDisplay:10.37,2013-01-08 10:25:00,
2013-01-08 05:30:00,35.4,31.4,30.36,ENE,60,0.0,0.0,85,0.00,CLR,OVC,0.00,WeatherDisplay:10.37,2013-01-08 10:30:00,
2013-01-08 05:40:00,35.4,31.4,30.36,ENE,60,0.0,0.0,85,0.00,CLR,OVC,0.00,WeatherDisplay:10.37,2013-01-08 10:40:00,
2013-01-08 05:50:00,35.6,31.5,30.36,ENE,60,0.0,0.0,85,0.00,CLR,OVC,0.00,WeatherDisplay:10.37,2013-01-08 10:50:00,
2013-01-08 06:00:00,36.0,31.9,30.36,ENE,60,0.0,0.0,85,0.00,CLR,OVC,0.00,WeatherDisplay:10.37,2013-01-08 11:00:00,
2013-01-08 06:05:00,36.1,32.1,30.36,ENE,60,0.0,0.0,85,0.00,CLR,OVC,0.00,WeatherDisplay:10.37,2013-01-08 11:05:00,
2013-01-08 06:10:00,36.3,32.2,30.36,ENE,60,0.0,0.0,85,0.00,CLR,OVC,0.00,WeatherDisplay:10.37,2013-01-08 11:10:00,
2013-01-08 06:15:00,36.3,32.2,30.36,ENE,60,0.0,0.0,85,0.00,CLR,OVC,0.00,WeatherDisplay:10.37,2013-01-08 11:15:00,
2013-01-08 06:20:00,36.5,32.4,30.36,ENE,60,0.0,0.0,85,0.00,CLR,OVC,0.00,WeatherDisplay:10.37,2013-01-08 11:20:00,
2013-01-08 06:30:00,36.7,32.6,30.36,ENE,60,0.0,0.0,85,0.00,CLR,OVC,0.00,WeatherDisplay:10.37,2013-01-08 11:30:00,
2013-01-08 06:35:00,36.9,32.8,30.39,ENE,60,0.0,0.0,85,0.00,CLR,OVC,0.00,WeatherDisplay:10.37,2013-01-08 11:35:00,
2013-01-08 06:40:00,37.0,32.9,30.39,ENE,60,0.0,0.0,85,0.00,CLR,OVC,0.00,WeatherDisplay:10.37,2013-01-08 11:40:00,
2013-01-08 06:50:00,37.2,33.1,30.39,ENE,60,0.0,0.0,85,0.00,CLR,OVC,0.00,WeatherDisplay:10.37,2013-01-08 11:50:00,
2013-01-08 07:00:00,37.4,33.3,30.39,ENE,60,0.0,0.0,85,0.00,CLR,OVC,0.00,WeatherDisplay:10.37,2013-01-08 12:00:00,
2013-01-08 07:05:00,37.6,33.5,30.39,ENE,60,0.0,0.0,85,0.00,CLR,OVC,0.00,WeatherDisplay:10.37,2013-01-08 12:05:00,
2013-01-08 07:10:00,37.6,33.5,30.39,ENE,60,0.0,0.0,85,0.00,CLR,OVC,0.00,WeatherDisplay:10.37,2013-01-08 12:10:00,
2013-01-08 07:20:00,37.6,33.5,30.39,ENE,62,0.0,0.0,85,0.00,CLR,OVC,0.00,WeatherDisplay:10.37,2013-01-08 12:20:00,
2013-01-08 07:30:00,37.6,33.2,30.39,ENE,62,0.0,0.0,84,0.00,CLR,OVC,0.00,WeatherDisplay:10.37,2013-01-08 12:30:00,
2013-01-08 07:35:00,37.4,33.0,30.39,ENE,62,0.0,0.0,84,0.00,CLR,OVC,0.00,WeatherDisplay:10.37,2013-01-08 12:35:00,
2013-01-08 07:40:00,37.5,33.1,30.39,ENE,63,0.0,0.0,84,0.00,CLR,OVC,0.00,WeatherDisplay:10.37,2013-01-08 12:40:00,
2013-01-08 07:50:00,37.6,33.2,30.39,ENE,62,0.0,0.0,84,0.00,CLR,OVC,0.00,WeatherDisplay:10.37,2013-01-08 12:50:00,
2013-01-08 08:00:00,37.8,33.4,30.39,ENE,67,0.0,0.0,84,0.00,CLR,OVC,0.00,WeatherDisplay:10.37,2013-01-08 13:00:00,
2013-01-08 08:05:00,37.8,33.1,30.42,ENE,78,0.0,0.0,83,0.00,CLR,OVC,0.00,WeatherDisplay:10.37,2013-01-08 13:05:00,
2013-01-08 08:10:00,37.9,33.2,30.42,East,88,0.0,0.0,83,0.00,CLR,OVC,0.00,WeatherDisplay:10.37,2013-01-08 13:10:00,
2013-01-08 08:20:00,38.3,33.3,30.42,ENE,77,0.0,0.0,82,0.00,CLR,OVC,0.00,WeatherDisplay:10.37,2013-01-08 13:20:00,
2013-01-08 08:25:00,38.3,33.0,30.42,East,85,0.0,0.0,81,0.00,CLR,OVC,0.00,WeatherDisplay:10.37,2013-01-08 13:25:00,
2013-01-08 08:30:00,38.3,32.7,30.42,ESE,102,0.0,0.0,80,0.00,CLR,OVC,0.00,WeatherDisplay:10.37,2013-01-08 13:30:00,
2013-01-08 08:35:00,38.5,32.8,30.39,East,94,0.0,3.0,80,0.00,CLR,OVC,0.00,WeatherDisplay:10.37,2013-01-08 13:35:00,
2013-01-08 08:40:00,38.5,32.8,30.39,East,86,0.0,2.0,80,0.00,CLR,OVC,0.00,WeatherDisplay:10.37,2013-01-08 13:40:00,
2013-01-08 08:50:00,38.6,32.7,30.42,ENE,73,0.0,0.0,79,0.00,CLR,OVC,0.00,WeatherDisplay:10.37,2013-01-08 13:50:00,
2013-01-08 09:00:00,39.0,33.1,30.42,East,94,0.0,3.0,79,0.00,CLR,OVC,0.00,WeatherDisplay:10.37,2013-01-08 14:00:00,
2013-01-08 09:05:00,39.4,33.1,30.39,East,83,0.0,5.0,78,0.00,CLR,OVC,0.00,WeatherDisplay:10.37,2013-01-08 14:05:00,
2013-01-08 09:10:00,39.6,33.3,30.39,ENE,75,0.0,4.0,78,0.00,CLR,OVC,0.00,WeatherDisplay:10.37,2013-01-08 14:10:00,
2013-01-08 09:20:00,40.1,33.1,30.42,ESE,119,0.0,0.0,76,0.00,CLR,OVC,0.00,WeatherDisplay:10.37,2013-01-08 14:20:00,
2013-01-08 09:30:00,40.6,33.3,30.42,East,85,0.0,0.0,75,0.00,CLR,OVC,0.00,WeatherDisplay:10.37,2013-01-08 14:30:00,
2013-01-08 09:35:00,40.9,33.6,30.42,ENE,65,0.0,0.0,75,0.00,CLR,OVC,0.00,WeatherDisplay:10.37,2013-01-08 14:35:00,
2013-01-08 09:40:00,41.2,33.2,30.42,East,83,0.0,3.0,73,0.00,CLR,OVC,0.00,WeatherDisplay:10.37,2013-01-08 14:40:00,
2013-01-08 09:50:00,41.7,32.7,30.42,ESE,112,0.0,0.0,70,0.00,CLR,OVC,0.00,WeatherDisplay:10.37,2013-01-08 14:50:00,
2013-01-08 10:00:00,42.3,32.8,30.42,East,101,0.0,0.0,69,0.00,CLR,OVC,0.00,WeatherDisplay:10.37,2013-01-08 15:00:00,
2013-01-08 10:05:00,42.4,33.0,30.42,ENE,67,0.0,0.0,69,0.00,CLR,OVC,0.00,WeatherDisplay:10.37,2013-01-08 15:05:00,
2013-01-08 10:10:00,42.8,33.3,30.42,ENE,76,0.0,0.0,69,0.00,CLR,OVC,0.00,WeatherDisplay:10.37,2013-01-08 15:10:00,
2013-01-08 10:20:00,43.5,33.7,30.42,ESE,103,0.0,0.0,68,0.00,CLR,OVC,0.00,WeatherDisplay:10.37,2013-01-08 15:20:00,
2013-01-08 10:25:00,43.7,33.8,30.42,East,89,0.0,0.0,68,0.00,CLR,OVC,0.00,WeatherDisplay:10.37,2013-01-08 15:25:00,
2013-01-08 10:30:00,44.1,33.8,30.42,ENE,76,0.0,0.0,67,0.00,CLR,OVC,0.00,WeatherDisplay:10.37,2013-01-08 15:30:00,
2013-01-08 10:40:00,44.4,33.8,30.42,ENE,64,0.0,0.0,66,0.00,CLR,OVC,0.00,WeatherDisplay:10.37,2013-01-08 15:40:00,
2013-01-08 10:50:00,44.8,33.4,30.42,East,79,0.0,0.0,64,0.00,CLR,OVC,0.00,WeatherDisplay:10.37,2013-01-08 15:50:00,
2013-01-08 10:55:00,45.1,33.6,30.42,ENE,58,0.0,0.0,64,0.00,CLR,OVC,0.00,WeatherDisplay:10.37,2013-01-08 15:55:00,
2013-01-08 11:00:00,45.3,33.1,30.42,ENE,67,0.0,0.0,62,0.00,CLR,OVC,0.00,WeatherDisplay:10.37,2013-01-08 16:00:00,
2013-01-08 11:05:00,45.7,32.6,30.42,East,98,0.0,0.0,60,0.00,CLR,OVC,0.00,WeatherDisplay:10.37,2013-01-08 16:05:00,
2013-01-08 11:10:00,46.0,33.3,30.42,East,95,0.0,0.0,61,0.00,CLR,OVC,0.00,WeatherDisplay:10.37,2013-01-08 16:10:00,
2013-01-08 11:15:00,46.4,33.7,30.42,East,98,0.0,0.0,61,0.00,CLR,OVC,0.00,WeatherDisplay:10.37,2013-01-08 16:15:00,
2013-01-08 11:20:00,46.9,33.3,30.42,ESE,105,0.0,3.0,59,0.00,CLR,OVC,0.00,WeatherDisplay:10.37,2013-01-08 16:20:00,
2013-01-08 11:30:00,47.5,32.6,30.42,East,84,0.0,0.0,56,0.00,CLR,OVC,0.00,WeatherDisplay:10.37,2013-01-08 16:30:00,
2013-01-08 11:35:00,47.8,32.4,30.42,East,80,0.0,0.0,55,0.00,CLR,OVC,0.00,WeatherDisplay:10.37,2013-01-08 16:35:00,
2013-01-08 11:40:00,48.2,32.7,30.42,ENE,77,0.0,0.0,55,0.00,CLR,OVC,0.00,WeatherDisplay:10.37,2013-01-08 16:40:00,
2013-01-08 11:50:00,48.7,32.3,30.39,East,99,0.0,0.0,53,0.00,CLR,OVC,0.00,WeatherDisplay:10.37,2013-01-08 16:50:00,
2013-01-08 12:00:00,48.9,32.5,30.39,East,92,0.0,4.0,53,0.00,CLR,OVC,0.00,WeatherDisplay:10.37,2013-01-08 17:00:00,
2013-01-08 12:05:00,49.1,32.7,30.39,East,98,0.0,3.0,53,0.00,CLR,OVC,0.00,WeatherDisplay:10.37,2013-01-08 17:05:00,
2013-01-08 12:10:00,49.5,33.0,30.39,East,93,0.0,0.0,53,0.00,CLR,OVC,0.00,WeatherDisplay:10.37,2013-01-08 17:10:00,
2013-01-08 12:20:00,50.0,33.1,30.39,East,101,0.0,0.0,52,0.00,CLR,OVC,0.00,WeatherDisplay:10.37,2013-01-08 17:20:00,
2013-01-08 12:30:00,50.9,32.9,30.39,ESE,115,0.0,0.0,50,0.00,CLR,OVC,0.00,WeatherDisplay:10.37,2013-01-08 17:30:00,
2013-01-08 12:35:00,51.5,33.4,30.39,ESE,108,3.0,5.0,50,0.00,CLR,OVC,0.00,WeatherDisplay:10.37,2013-01-08 17:35:00,
2013-01-08 12:40:00,52.3,34.2,30.39,East,99,0.0,0.0,50,0.00,CLR,OVC,0.00,WeatherDisplay:10.37,2013-01-08 17:40:00,
2013-01-08 12:45:00,52.7,34.1,30.39,East,96,0.0,0.0,49,0.00,CLR,OVC,0.00,WeatherDisplay:10.37,2013-01-08 17:45:00,
2013-01-08 12:50:00,53.1,33.9,30.39,East,94,0.0,0.0,48,0.00,CLR,OVC,0.00,WeatherDisplay:10.37,2013-01-08 17:50:00,
2013-01-08 12:55:00,53.2,34.0,30.39,ESE,114,0.0,0.0,48,0.00,CLR,OVC,0.00,WeatherDisplay:10.37,2013-01-08 17:55:00,
2013-01-08 13:00:00,53.3,33.0,30.39,SE,126,0.0,0.0,46,0.00,CLR,OVC,0.00,WeatherDisplay:10.37,2013-01-08 18:00:00,
2013-01-08 13:05:00,53.4,34.2,30.36,SE,127,0.0,0.0,48,0.00,CLR,OVC,0.00,WeatherDisplay:10.37,2013-01-08 18:05:00,
2013-01-08 13:10:00,53.6,34.4,30.36,SE,127,0.0,0.0,48,0.00,CLR,OVC,0.00,WeatherDisplay:10.37,2013-01-08 18:10:00,
2013-01-08 13:20:00,53.8,33.5,30.36,East,100,0.0,0.0,46,0.00,CLR,OVC,0.00,WeatherDisplay:10.37,2013-01-08 18:20:00,
2013-01-08 13:25:00,53.8,33.5,30.36,NE,41,0.0,0.0,46,0.00,CLR,OVC,0.00,WeatherDisplay:10.37,2013-01-08 18:25:00,
2013-01-08 13:30:00,53.8,33.5,30.36,North,5,0.0,0.0,46,0.00,CLR,OVC,0.00,WeatherDisplay:10.37,2013-01-08 18:30:00,
2013-01-08 13:40:00,54.1,34.3,30.36,NE,56,0.0,0.0,47,0.00,CLR,OVC,0.00,WeatherDisplay:10.37,2013-01-08 18:40:00,
2013-01-08 13:50:00,54.9,35.5,30.36,East,94,0.0,0.0,48,0.00,CLR,OVC,0.00,WeatherDisplay:10.37,2013-01-08 18:50:00,
2013-01-08 13:55:00,55.2,34.8,30.36,ESE,103,0.0,0.0,46,0.00,CLR,OVC,0.00,WeatherDisplay:10.37,2013-01-08 18:55:00,
2013-01-08 14:00:00,55.4,35.5,30.36,ESE,111,0.0,5.0,47,0.00,CLR,OVC,0.00,WeatherDisplay:10.37,2013-01-08 19:00:00,
2013-01-08 14:05:00,55.8,36.4,30.33,ESE,110,0.0,3.0,48,0.00,CLR,OVC,0.00,WeatherDisplay:10.37,2013-01-08 19:05:00,
2013-01-08 14:10:00,55.9,35.4,30.33,SE,127,0.0,0.0,46,0.00,CLR,OVC,0.00,WeatherDisplay:10.37,2013-01-08 19:10:00,
2013-01-08 14:20:00,56.1,35.6,30.33,East,85,2.0,5.0,46,0.00,CLR,OVC,0.00,WeatherDisplay:10.37,2013-01-08 19:20:00,
2013-01-08 14:25:00,55.9,35.4,30.33,ESE,102,0.0,0.0,46,0.00,CLR,OVC,0.00,WeatherDisplay:10.37,2013-01-08 19:25:00,
2013-01-08 14:30:00,55.9,35.4,30.33,East,99,0.0,0.0,46,0.00,CLR,OVC,0.00,WeatherDisplay:10.37,2013-01-08 19:30:00,
2013-01-08 14:35:00,55.9,36.0,30.33,SE,133,0.0,0.0,47,0.00,CLR,OVC,0.00,WeatherDisplay:10.37,2013-01-08 19:35:00,
2013-01-08 14:40:00,55.9,36.5,30.33,SSE,147,0.0,0.0,48,0.00,CLR,OVC,0.00,WeatherDisplay:10.37,2013-01-08 19:40:00,
2013-01-08 14:45:00,56.0,36.6,30.33,SE,144,0.0,0.0,48,0.00,CLR,OVC,0.00,WeatherDisplay:10.37,2013-01-08 19:45:00,
2013-01-08 14:50:00,55.9,36.5,30.33,SSE,164,0.0,0.0,48,0.00,CLR,OVC,0.00,WeatherDisplay:10.37,2013-01-08 19:50:00,
2013-01-08 15:00:00,55.9,37.0,30.33,SE,124,0.0,0.0,49,0.00,CLR,OVC,0.00,WeatherDisplay:10.37,2013-01-08 20:00:00,
2013-01-08 15:05:00,55.9,37.0,30.33,ESE,102,0.0,0.0,49,0.00,CLR,OVC,0.00,WeatherDisplay:10.37,2013-01-08 20:05:00,
2013-01-08 15:10:00,55.9,37.6,30.33,ESE,102,0.0,0.0,50,0.00,CLR,OVC,0.00,WeatherDisplay:10.37,2013-01-08 20:10:00,
2013-01-08 15:15:00,56.1,37.2,30.33,ESE,102,0.0,0.0,49,0.00,CLR,OVC,0.00,WeatherDisplay:10.37,2013-01-08 20:15:00,
2013-01-08 15:20:00,56.1,37.2,30.33,ESE,103,0.0,0.0,49,0.00,CLR,OVC,0.00,WeatherDisplay:10.37,2013-01-08 20:20:00,
2013-01-08 15:25:00,56.0,37.6,30.33,ESE,103,0.0,0.0,50,0.00,CLR,OVC,0.00,WeatherDisplay:10.37,2013-01-08 20:25:00,
2013-01-08 15:30:00,55.9,37.6,30.33,ESE,103,0.0,0.0,50,0.00,CLR,OVC,0.00,WeatherDisplay:10.37,2013-01-08 20:30:00,
2013-01-08 15:40:00,55.8,37.4,30.33,ESE,103,0.0,0.0,50,0.00,CLR,OVC,0.00,WeatherDisplay:10.37,2013-01-08 20:40:00,
2013-01-08 15:50:00,55.5,37.2,30.36,East,82,0.0,0.0,50,0.00,CLR,OVC,0.00,WeatherDisplay:10.37,2013-01-08 20:50:00,
2013-01-08 15:55:00,55.2,36.9,30.36,ENE,59,0.0,0.0,50,0.00,CLR,OVC,0.00,WeatherDisplay:10.37,2013-01-08 20:55:00,
2013-01-08 16:00:00,55.0,37.2,30.36,NE,56,0.0,0.0,51,0.00,CLR,OVC,0.00,WeatherDisplay:10.37,2013-01-08 21:00:00,
2013-01-08 16:05:00,54.9,37.1,30.33,NE,56,0.0,0.0,51,0.00,CLR,OVC,0.00,WeatherDisplay:10.37,2013-01-08 21:05:00,
2013-01-08 16:10:00,54.9,37.1,30.33,ENE,58,0.0,0.0,51,0.00,CLR,OVC,0.00,WeatherDisplay:10.37,2013-01-08 21:10:00,
2013-01-08 16:20:00,54.9,37.6,30.33,East,81,0.0,0.0,52,0.00,CLR,OVC,0.00,WeatherDisplay:10.37,2013-01-08 21:20:00,
2013-01-08 16:30:00,54.9,37.6,30.33,ENE,61,0.0,0.0,52,0.00,CLR,OVC,0.00,WeatherDisplay:10.37,2013-01-08 21:30:00,
2013-01-08 16:35:00,54.9,37.6,30.33,ENE,66,0.0,0.0,52,0.00,CLR,OVC,0.00,WeatherDisplay:10.37,2013-01-08 21:35:00,
2013-01-08 16:40:00,54.9,37.6,30.33,ENE,74,0.0,0.0,52,0.00,CLR,OVC,0.00,WeatherDisplay:10.37,2013-01-08 21:40:00,
2013-01-08 16:45:00,54.9,37.6,30.33,East,80,0.0,0.0,52,0.00,CLR,OVC,0.00,WeatherDisplay:10.37,2013-01-08 21:45:00,
2013-01-08 16:50:00,54.7,37.4,30.33,East,80,0.0,0.0,52,0.00,CLR,OVC,0.00,WeatherDisplay:10.37,2013-01-08 21:50:00,
2013-01-08 16:55:00,54.7,37.4,30.33,East,80,0.0,0.0,52,0.00,CLR,OVC,0.00,WeatherDisplay:10.37,2013-01-08 21:55:00,
2013-01-08 17:05:00,54.5,37.7,30.33,East,80,0.0,0.0,53,0.00,CLR,OVC,0.00,WeatherDisplay:10.37,2013-01-08 22:05:00,
2013-01-08 17:10:00,54.3,37.5,30.33,East,80,0.0,0.0,53,0.00,CLR,OVC,0.00,WeatherDisplay:10.37,2013-01-08 22:10:00,
2013-01-08 17:15:00,54.1,37.8,30.33,East,80,0.0,0.0,54,0.00,CLR,OVC,0.00,WeatherDisplay:10.37,2013-01-08 22:15:00,
2013-01-08 17:20:00,54.0,37.7,30.33,East,80,0.0,0.0,54,0.00,CLR,OVC,0.00,WeatherDisplay:10.37,2013-01-08 22:20:00,
2013-01-08 17:30:00,53.5,36.8,30.33,North,355,0.0,0.0,53,0.00,CLR,OVC,0.00,WeatherDisplay:10.37,2013-01-08 22:30:00,
2013-01-08 17:35:00,53.3,36.6,30.33,NW,312,0.0,0.0,53,0.00,CLR,OVC,0.00,WeatherDisplay:10.37,2013-01-08 22:35:00,
2013-01-08 17:40:00,53.1,36.4,30.33,NNE,14,0.0,0.0,53,0.00,CLR,OVC,0.00,WeatherDisplay:10.37,2013-01-08 22:40:00,
2013-01-08 17:50:00,52.7,36.0,30.33,NNE,22,0.0,0.0,53,0.00,CLR,OVC,0.00,WeatherDisplay:10.37,2013-01-08 22:50:00,
2013-01-08 18:00:00,52.3,36.2,30.33,NNE,23,0.0,0.0,54,0.00,CLR,OVC,0.00,WeatherDisplay:10.37,2013-01-08 23:00:00,
2013-01-08 18:05:00,52.2,36.0,30.36,NNE,23,0.0,0.0,54,0.00,CLR,OVC,0.00,WeatherDisplay:10.37,2013-01-08 23:05:00,
2013-01-08 18:10:00,52.0,35.8,30.36,NNE,23,0.0,0.0,54,0.00,CLR,OVC,0.00,WeatherDisplay:10.37,2013-01-08 23:10:00,
2013-01-08 18:20:00,51.8,36.1,30.36,NNE,23,0.0,0.0,55,0.00,CLR,OVC,0.00,WeatherDisplay:10.37,2013-01-08 23:20:00,
2013-01-08 18:30:00,51.6,36.4,30.36,NNE,23,0.0,0.0,56,0.00,CLR,OVC,0.00,WeatherDisplay:10.37,2013-01-08 23:30:00,
2013-01-08 18:35:00,51.4,36.3,30.36,NNE,23,0.0,0.0,56,0.00,CLR,OVC,0.00,WeatherDisplay:10.37,2013-01-08 23:35:00,
2013-01-08 18:40:00,51.4,36.3,30.36,NNE,23,0.0,0.0,56,0.00,CLR,OVC,0.00,WeatherDisplay:10.37,2013-01-08 23:40:00,
2013-01-08 18:45:00,51.3,36.5,30.36,NNE,23,0.0,0.0,57,0.00,CLR,OVC,0.00,WeatherDisplay:10.37,2013-01-08 23:45:00,
2013-01-08 18:50:00,51.1,36.4,30.36,NNE,23,0.0,0.0,57,0.00,CLR,OVC,0.00,WeatherDisplay:10.37,2013-01-08 23:50:00,
2013-01-08 19:00:00,50.9,36.6,30.36,NNE,23,0.0,0.0,58,0.00,CLR,OVC,0.00,WeatherDisplay:10.37,2013-01-09 00:00:00,
2013-01-08 19:05:00,50.9,36.6,30.36,NNE,23,0.0,0.0,58,0.00,CLR,OVC,0.00,WeatherDisplay:10.37,2013-01-09 00:05:00,
2013-01-08 19:10:00,50.8,36.5,30.36,NNE,23,0.0,0.0,58,0.00,CLR,OVC,0.00,WeatherDisplay:10.37,2013-01-09 00:10:00,
2013-01-08 19:20:00,50.7,36.5,30.36,NNE,23,0.0,0.0,58,0.00,CLR,OVC,0.00,WeatherDisplay:10.37,2013-01-09 00:20:00,
2013-01-08 19:30:00,50.7,36.5,30.36,NNE,24,0.0,0.0,58,0.00,CLR,OVC,0.00,WeatherDisplay:10.37,2013-01-09 00:30:00,
2013-01-08 19:35:00,50.5,36.3,30.36,NNE,25,0.0,0.0,58,0.00,CLR,OVC,0.00,WeatherDisplay:10.37,2013-01-09 00:35:00,
2013-01-08 19:40:00,50.5,36.3,30.36,NNE,25,0.0,0.0,58,0.00,CLR,OVC,0.00,WeatherDisplay:10.37,2013-01-09 00:40:00,
2013-01-08 19:50:00,50.5,37.2,30.36,NNE,27,0.0,0.0,60,0.00,CLR,OVC,0.00,WeatherDisplay:10.37,2013-01-09 00:50:00,
2013-01-08 20:00:00,50.4,37.4,30.36,NNE,28,0.0,0.0,61,0.00,CLR,OVC,0.00,WeatherDisplay:10.37,2013-01-09 01:00:00,
2013-01-08 20:05:00,50.4,37.4,30.36,NNE,28,0.0,0.0,61,0.00,CLR,OVC,0.00,WeatherDisplay:10.37,2013-01-09 01:05:00,
2013-01-08 20:10:00,50.2,37.2,30.36,NNE,28,0.0,0.0,61,0.00,CLR,OVC,0.00,WeatherDisplay:10.37,2013-01-09 01:10:00,
2013-01-08 20:20:00,50.0,37.5,30.36,NNE,28,0.0,0.0,62,0.00,CLR,OVC,0.00,WeatherDisplay:10.37,2013-01-09 01:20:00,
2013-01-08 20:30:00,50.0,37.5,30.36,NNE,28,0.0,0.0,62,0.00,CLR,OVC,0.00,WeatherDisplay:10.37,2013-01-09 01:30:00,
2013-01-08 20:40:00,50.0,37.9,30.36,NNE,28,0.0,0.0,63,0.00,CLR,OVC,0.00,WeatherDisplay:10.37,2013-01-09 01:40:00,
2013-01-08 20:50:00,50.0,37.9,30.39,NNE,28,0.0,0.0,63,0.00,CLR,OVC,0.00,WeatherDisplay:10.37,2013-01-09 01:50:00,
2013-01-08 20:55:00,50.0,37.9,30.39,NNE,28,0.0,0.0,63,0.00,CLR,OVC,0.00,WeatherDisplay:10.37,2013-01-09 01:55:00,
2013-01-08 21:05:00,50.0,37.9,30.39,NNE,28,0.0,0.0,63,0.00,CLR,OVC,0.00,WeatherDisplay:10.37,2013-01-09 02:05:00,
2013-01-08 21:10:00,50.0,37.9,30.39,NNE,28,0.0,0.0,63,0.00,CLR,OVC,0.00,WeatherDisplay:10.37,2013-01-09 02:10:00,
2013-01-08 21:20:00,49.6,38.0,30.36,NNE,28,0.0,0.0,64,0.00,CLR,OVC,0.00,WeatherDisplay:10.37,2013-01-09 02:20:00,
2013-01-08 21:30:00,49.3,37.6,30.36,NNE,28,0.0,0.0,64,0.00,CLR,OVC,0.00,WeatherDisplay:10.37,2013-01-09 02:30:00,
2013-01-08 21:35:00,49.1,37.4,30.36,NNE,28,0.0,0.0,64,0.00,CLR,OVC,0.00,WeatherDisplay:10.37,2013-01-09 02:35:00,
2013-01-08 21:40:00,48.9,37.3,30.36,NNE,28,0.0,0.0,64,0.00,CLR,OVC,0.00,WeatherDisplay:10.37,2013-01-09 02:40:00,
2013-01-08 21:50:00,48.5,37.3,30.36,NNE,28,0.0,0.0,65,0.00,CLR,OVC,0.00,WeatherDisplay:10.37,2013-01-09 02:50:00,
2013-01-08 22:00:00,48.0,36.8,30.36,NNE,28,0.0,0.0,65,0.00,CLR,OVC,0.00,WeatherDisplay:10.37,2013-01-09 03:00:00,
2013-01-08 22:05:00,47.7,36.5,30.36,NNE,28,0.0,0.0,65,0.00,CLR,OVC,0.00,WeatherDisplay:10.37,2013-01-09 03:05:00,
2013-01-08 22:10:00,47.4,36.6,30.36,NNE,28,0.0,0.0,66,0.00,CLR,OVC,0.00,WeatherDisplay:10.37,2013-01-09 03:10:00,
2013-01-08 22:20:00,46.8,36.4,30.36,NNE,28,0.0,0.0,67,0.00,CLR,OVC,0.00,WeatherDisplay:10.37,2013-01-09 03:20:00,
2013-01-08 22:25:00,46.6,36.6,30.36,NNE,28,0.0,0.0,68,0.00,CLR,OVC,0.00,WeatherDisplay:10.37,2013-01-09 03:25:00,
2013-01-08 22:30:00,46.3,36.3,30.36,NNE,28,0.0,0.0,68,0.00,CLR,OVC,0.00,WeatherDisplay:10.37,2013-01-09 03:30:00,
2013-01-08 22:40:00,45.9,36.3,30.36,NNE,28,0.0,0.0,69,0.00,CLR,OVC,0.00,WeatherDisplay:10.37,2013-01-09 03:40:00,
2013-01-08 22:50:00,45.7,36.5,30.36,NNE,28,0.0,0.0,70,0.00,CLR,OVC,0.00,WeatherDisplay:10.37,2013-01-09 03:50:00,
2013-01-08 22:55:00,45.7,36.8,30.36,NNE,28,0.0,0.0,71,0.00,CLR,OVC,0.00,WeatherDisplay:10.37,2013-01-09 03:55:00,
2013-01-08 23:00:00,45.7,36.8,30.36,NNE,28,0.0,0.0,71,0.00,CLR,OVC,0.00,WeatherDisplay:10.37,2013-01-09 04:00:00,
2013-01-08 23:05:00,45.9,37.3,30.39,NNE,28,0.0,0.0,72,0.00,CLR,OVC,0.00,WeatherDisplay:10.37,2013-01-09 04:05:00,
2013-01-08 23:10:00,45.9,37.3,30.39,NNE,28,0.0,0.0,72,0.00,CLR,OVC,0.00,WeatherDisplay:10.37,2013-01-09 04:10:00,
2013-01-08 23:15:00,46.0,37.9,30.39,NNE,28,0.0,0.0,73,0.00,CLR,OVC,0.00,WeatherDisplay:10.37,2013-01-09 04:15:00,
2013-01-08 23:20:00,46.0,37.9,30.36,NNE,28,0.0,0.0,73,0.00,CLR,OVC,0.00,WeatherDisplay:10.37,2013-01-09 04:20:00,
2013-01-08 23:30:00,46.2,38.4,30.36,NNE,28,0.0,0.0,74,0.00,CLR,OVC,0.00,WeatherDisplay:10.37,2013-01-09 04:30:00,
2013-01-08 23:35:00,46.2,38.4,30.39,NNE,28,0.0,0.0,74,0.00,CLR,OVC,0.00,WeatherDisplay:10.37,2013-01-09 04:35:00,
2013-01-08 23:40:00,46.2,38.4,30.39,NNE,28,0.0,0.0,74,0.00,CLR,OVC,0.00,WeatherDisplay:10.37,2013-01-09 04:40:00,
2013-01-08 23:50:00,46.4,38.6,30.36,NNE,28,0.0,0.0,74,0.00,CLR,OVC,0.00,WeatherDisplay:10.37,2013-01-09 04:50:00,